Mogi Das Cruzes, Brazil
Current Conditions -  °F | °C
As of 10:00 PM on Sunday 23 Nov 2014 (Local Time) from SBGR Reporting Station
Overcast Overcast  
Wind Chill: 70°   Ceiling: 900
Heat Index: 70°   Visibility: 6mi
Dew Point: 68°   Wind: 7mph
Humidity: 94%   Direction: 120°ESE
Pressure: 30.06"   Gusts: NA
Location:  23.52°S, 46.19°W
Report Text: SBGR 240000Z 12006KT 9999 OVC009 21/20 Q1018
Loading
Personal Weather Stations






























Interactive Weather Map New forecast layout! Learn more

10-Day Weather Forecast

Advertisements
Track Severe Weather on mobile